createdAt,value
2022-09-01T04:51:09.512Z,16.200001
2022-09-01T04:53:23.849Z,16.26
2022-09-01T04:55:38.255Z,16.389999
2022-09-01T04:57:52.549Z,16.58
2022-09-01T05:00:06.898Z,16.790001
2022-09-01T05:02:21.275Z,17.01
2022-09-01T05:04:35.603Z,17.23
2022-09-01T05:06:49.945Z,17.450001
2022-09-01T05:09:04.281Z,17.639999
2022-09-01T05:11:18.651Z,17.82
2022-09-01T05:13:32.965Z,17.969999
2022-09-01T05:15:47.316Z,18.110001
2022-09-01T05:18:01.663Z,18.219999
2022-09-01T05:20:15.988Z,18.309999
2022-09-01T05:22:30.345Z,18.379999
2022-09-01T05:24:44.689Z,18.440001
2022-09-01T05:27:00.019Z,18.5
2022-09-01T05:29:14.353Z,18.549999
2022-09-01T05:31:28.747Z,18.6
2022-09-01T05:33:43.037Z,18.639999
2022-09-01T05:35:58.362Z,18.690001
2022-09-01T05:38:12.741Z,18.75
2022-09-01T05:40:27.088Z,18.809999
2022-09-01T05:42:41.439Z,18.860001
2022-09-01T05:44:55.782Z,18.889999
2022-09-01T05:47:10.115Z,18.92
2022-09-01T05:49:27.412Z,18.950001
2022-09-01T05:51:44.690Z,19
2022-09-01T05:53:58.253Z,19.049999
2022-09-01T05:56:13.582Z,19.08
2022-09-01T05:59:22.291Z,19.1
2022-09-01T06:00:45.713Z,19.129999
2022-09-01T06:03:01.207Z,19.15
2022-09-01T06:05:15.470Z,19.17
2022-09-01T06:07:29.827Z,19.209999
2022-09-01T06:09:44.231Z,19.27
2022-09-01T06:11:58.624Z,19.35
2022-09-01T06:14:13.982Z,19.41
2022-09-01T06:16:28.348Z,19.469999
2022-09-01T06:18:42.673Z,19.51
2022-09-01T06:20:59.998Z,19.549999
2022-09-01T06:23:14.335Z,19.59
2022-09-01T06:25:28.782Z,19.629999
2022-09-01T06:27:43.199Z,19.68
2022-09-01T06:29:57.534Z,19.719999
2022-09-01T06:32:11.900Z,19.780001
2022-09-01T06:34:27.227Z,19.84
2022-09-01T06:36:41.603Z,19.889999
2022-09-01T06:38:55.922Z,19.950001
2022-09-01T06:41:10.259Z,19.99
2022-09-01T06:43:24.580Z,20.030001
2022-09-01T06:45:38.902Z,20.07
2022-09-01T06:47:59.600Z,20.120001
2022-09-01T06:50:08.556Z,20.18
2022-09-01T06:52:25.142Z,20.23
2022-09-01T06:54:42.256Z,20.27
2022-09-01T06:56:56.677Z,20.32
2022-09-01T06:59:14.011Z,20.370001
2022-09-01T07:01:28.482Z,20.41
2022-09-01T07:03:42.697Z,20.450001
2022-09-01T07:06:04.139Z,20.51
2022-09-01T07:08:12.396Z,20.559999
2022-09-01T07:10:26.690Z,20.610001
2022-09-01T07:12:41.335Z,20.66
2022-09-01T07:17:23.087Z,20.75
2022-09-01T07:26:28.045Z,20.99
2022-09-01T07:28:37.365Z,21.040001
2022-09-01T07:30:51.490Z,21.09
2022-09-01T07:35:23.213Z,21.23
2022-09-01T07:39:55.388Z,21.370001
2022-09-01T07:42:58.387Z,20.92
2022-09-01T07:44:29.879Z,21.51
2022-09-01T07:46:44.395Z,21.58
2022-09-01T07:49:03.034Z,21.620001
2022-09-01T07:51:35.904Z,21.67
2022-09-01T07:53:36.294Z,21.719999
2022-09-01T07:55:50.586Z,21.790001
2022-09-01T07:58:04.955Z,21.860001
2022-09-01T08:00:20.306Z,21.940001
2022-09-01T08:02:38.121Z,22.02
2022-09-01T08:04:52.407Z,22.110001
2022-09-01T08:07:06.891Z,22.18
2022-09-01T08:09:33.094Z,22.24
2022-09-01T08:12:00.940Z,22.290001
2022-09-01T08:13:57.947Z,22.35
2022-09-01T08:16:19.513Z,22.42
2022-09-01T08:18:27.670Z,22.49
2022-09-01T08:20:44.968Z,22.559999
2022-09-01T08:22:59.426Z,22.639999
2022-09-01T08:25:13.732Z,22.719999
2022-09-01T08:27:31.041Z,22.799999
2022-09-01T08:29:45.423Z,22.870001
2022-09-01T08:31:59.888Z,22.93
2022-09-01T08:34:14.177Z,22.98
2022-09-01T08:36:28.554Z,23.02
2022-09-01T08:38:44.176Z,23.059999
2022-09-01T08:40:58.551Z,23.09
2022-09-01T08:43:15.390Z,23.120001
2022-09-01T08:45:26.296Z,23.15
2022-09-01T08:47:58.569Z,23.18
2022-09-01T08:49:58.102Z,23.209999
2022-09-01T08:52:13.510Z,23.26
2022-09-01T08:54:29.583Z,23.309999
2022-09-01T08:56:42.314Z,23.34
2022-09-01T08:58:56.068Z,23.4
2022-09-01T09:01:11.173Z,23.5
2022-09-01T09:03:26.668Z,23.610001
2022-09-01T09:05:44.429Z,23.719999
2022-09-01T09:08:06.814Z,23.799999
2022-09-01T09:10:16.097Z,23.85
2022-09-01T09:12:30.441Z,23.879999
2022-09-01T09:14:46.867Z,23.9
2022-09-01T09:17:01.282Z,23.92
2022-09-01T09:19:17.091Z,23.950001
2022-09-01T09:21:31.464Z,23.940001
2022-09-01T09:23:45.900Z,23.959999
2022-09-01T09:26:00.257Z,23.950001
2022-09-01T09:28:15.664Z,23.91
2022-09-01T09:30:31.183Z,23.860001
2022-09-01T09:33:15.264Z,23.860001
2022-09-01T09:35:03.906Z,23.9
2022-09-01T09:37:18.464Z,23.969999
2022-09-01T09:39:32.865Z,24.08
2022-09-01T09:41:48.262Z,24.209999
2022-09-01T09:44:01.722Z,24.32
2022-09-01T09:46:25.155Z,24.41
2022-09-01T09:48:33.646Z,24.49
2022-09-01T09:50:48.373Z,24.57
2022-09-01T09:53:03.596Z,24.629999
2022-09-01T09:55:17.979Z,24.620001
2022-09-01T09:57:32.496Z,24.559999
2022-09-01T09:59:58.109Z,24.57
2022-09-01T10:02:04.240Z,24.58
2022-09-01T10:04:19.623Z,24.639999
2022-09-01T10:06:34.278Z,24.65
2022-09-01T10:08:48.613Z,24.58
2022-09-01T10:11:02.979Z,24.49
2022-09-01T10:13:18.399Z,24.5
2022-09-01T10:15:32.712Z,24.549999
2022-09-01T10:17:47.067Z,24.639999
2022-09-01T10:20:03.379Z,24.74
2022-09-01T10:22:18.766Z,24.860001
2022-09-01T10:24:33.065Z,24.969999
2022-09-01T10:26:50.390Z,25.02
2022-09-01T10:29:04.713Z,24.98
2022-09-01T10:31:22.101Z,24.9
2022-09-01T10:33:39.384Z,24.860001
2022-09-01T10:35:54.282Z,24.969999
2022-09-01T10:38:11.109Z,25.1
2022-09-01T10:40:30.207Z,25.190001
2022-09-01T10:42:40.537Z,25.280001
2022-09-01T10:44:56.134Z,25.360001
2022-09-01T10:47:13.464Z,25.4
2022-09-01T10:49:28.443Z,25.450001
2022-09-01T10:51:50.356Z,25.530001
2022-09-01T10:54:03.274Z,25.620001
2022-09-01T10:56:19.983Z,25.620001
2022-09-01T11:03:29.534Z,25.700001
2022-09-01T11:05:24.284Z,25.809999
2022-09-01T11:10:08.723Z,25.799999
2022-09-01T11:12:15.425Z,25.799999
2022-09-01T11:14:32.746Z,25.73
2022-09-01T11:16:49.496Z,25.709999
2022-09-01T11:19:02.512Z,25.780001
2022-09-01T11:21:18.943Z,25.879999
2022-09-01T11:23:34.854Z,25.870001
2022-09-01T11:26:18.955Z,25.809999
2022-09-01T11:28:09.453Z,25.780001
2022-09-01T11:30:26.394Z,25.83
2022-09-01T11:32:44.938Z,25.950001
2022-09-01T11:34:56.799Z,26.110001
2022-09-01T11:37:11.144Z,26.18
2022-09-01T11:39:26.501Z,26.25
2022-09-01T11:41:43.030Z,26.290001
2022-09-01T11:43:58.207Z,26.35
2022-09-01T11:46:12.609Z,26.43
2022-09-01T11:48:27.098Z,26.57
2022-09-01T11:50:41.581Z,26.719999
2022-09-01T11:52:55.990Z,26.809999
2022-09-01T11:55:12.305Z,26.889999
2022-09-01T11:57:26.720Z,27
2022-09-01T11:59:41.095Z,27.18
2022-09-01T12:01:55.683Z,27.370001
2022-09-01T12:04:09.867Z,27.540001
2022-09-01T12:06:24.686Z,27.68
2022-09-01T12:08:39.107Z,27.82
2022-09-01T12:10:53.393Z,27.959999
2022-09-01T12:13:07.740Z,27.879999
2022-09-01T12:15:22.102Z,27.76
2022-09-01T12:17:36.447Z,27.620001
2022-09-01T12:19:51.110Z,27.530001
2022-09-01T12:22:05.768Z,27.389999
2022-09-01T12:24:20.173Z,27.309999
2022-09-01T12:26:34.522Z,27.42
2022-09-01T12:28:48.885Z,27.65
2022-09-01T12:31:03.268Z,27.940001
2022-09-01T12:33:25.462Z,28.16
2022-09-01T12:35:34.582Z,28.16
2022-09-01T12:37:48.923Z,27.99
2022-09-01T12:40:04.530Z,27.84
2022-09-01T12:42:19.062Z,27.799999
2022-09-01T12:44:33.484Z,28.01
2022-09-01T12:46:47.989Z,28.34
2022-09-01T12:49:02.432Z,28.690001
2022-09-01T12:51:17.359Z,28.99
2022-09-01T12:53:36.372Z,29.27
2022-09-01T12:55:50.038Z,29.530001
2022-09-01T12:58:04.881Z,29.809999
2022-09-01T13:00:19.674Z,30.059999
2022-09-01T13:02:35.017Z,30.27
2022-09-01T13:04:49.744Z,30.469999
2022-09-01T13:07:05.294Z,30.65
2022-09-01T13:09:19.880Z,30.799999
2022-09-01T13:13:51.868Z,31.1
2022-09-01T13:16:06.327Z,31.26
2022-09-01T13:18:21.045Z,31.4
2022-09-01T13:20:35.219Z,31.450001
2022-09-01T13:22:50.292Z,31.549999
2022-09-01T13:25:05.476Z,31.639999
2022-09-01T13:27:20.960Z,31.639999
2022-09-01T13:29:34.400Z,31.360001
2022-09-01T13:34:10.523Z,30.799999
2022-09-01T13:36:53.220Z,30.790001
2022-09-01T13:38:41.264Z,30.860001
2022-09-01T13:40:58.582Z,31.01
2022-09-01T13:43:13.224Z,31.200001
2022-09-01T13:45:27.550Z,31.389999
2022-09-01T13:50:10.725Z,31.370001
2022-09-01T13:52:18.444Z,31.440001
2022-09-01T13:54:32.921Z,31.52
2022-09-01T13:56:47.273Z,31.6
2022-09-01T13:59:01.631Z,31.629999
2022-09-01T14:01:16.841Z,31.68
2022-09-01T14:03:31.108Z,31.82
2022-09-01T14:05:45.440Z,31.92
2022-09-01T14:07:59.789Z,32.040001
2022-09-01T14:10:14.118Z,32.130001
2022-09-01T14:12:28.990Z,32.209999
2022-09-01T14:17:01.507Z,32.470001
2022-09-01T14:19:15.836Z,32.57
2022-09-01T14:21:31.117Z,32.529999
2022-09-01T14:23:46.824Z,32.5
2022-09-01T14:26:02.325Z,32.380001
2022-09-01T14:28:20.522Z,32.209999
2022-09-01T14:30:32.022Z,32.099998
2022-09-01T14:32:47.158Z,31.790001
2022-09-01T14:35:01.846Z,31.4
2022-09-01T14:37:16.773Z,31.09
2022-09-01T14:39:31.120Z,30.860001
2022-09-01T14:41:45.804Z,30.85
2022-09-01T14:44:03.155Z,30.73
2022-09-01T14:46:16.150Z,30.469999
2022-09-01T14:48:30.572Z,30.34
2022-09-01T14:50:45.945Z,30.43
2022-09-01T14:53:00.300Z,30.629999
2022-09-01T14:55:14.659Z,30.84
2022-09-01T14:57:30.704Z,31.07
2022-09-01T14:59:46.360Z,31.309999
2022-09-01T15:02:01.961Z,31.52
2022-09-01T15:04:16.315Z,31.639999
2022-09-01T15:06:31.254Z,31.59
2022-09-01T15:08:45.620Z,31.530001
2022-09-01T15:10:59.936Z,31.549999
2022-09-01T15:13:14.337Z,31.629999
2022-09-01T15:15:28.910Z,31.709999
2022-09-01T15:17:44.582Z,31.780001
2022-09-01T15:19:58.031Z,31.639999
2022-09-01T15:22:12.400Z,31.35
2022-09-01T15:24:26.813Z,30.98
2022-09-01T15:26:41.274Z,30.6
2022-09-01T15:28:55.642Z,30.25
2022-09-01T15:31:12.975Z,29.950001
2022-09-01T15:33:28.219Z,29.68
2022-09-01T15:35:45.565Z,29.57
2022-09-01T15:38:02.294Z,29.68
2022-09-01T15:40:16.839Z,29.870001
2022-09-01T15:42:31.148Z,29.969999
2022-09-01T15:44:46.304Z,30.15
2022-09-01T15:47:00.757Z,30.360001
2022-09-01T15:49:16.045Z,30.4
2022-09-01T15:51:30.621Z,30.280001
2022-09-01T15:53:45.732Z,30.08
2022-09-01T15:55:59.604Z,29.84
2022-09-01T15:58:13.975Z,29.57
2022-09-01T16:00:28.369Z,29.32
2022-09-01T16:02:42.746Z,29.09
2022-09-01T16:04:58.077Z,28.889999
2022-09-01T16:07:12.461Z,28.719999
2022-09-01T16:09:26.844Z,28.58
2022-09-01T16:11:41.443Z,28.48
2022-09-01T16:13:55.813Z,28.4
2022-09-01T16:16:18.548Z,28.34
2022-09-01T16:18:33.084Z,28.290001
2022-09-01T16:20:47.638Z,28.219999
2022-09-01T16:23:02.044Z,28.15
2022-09-01T16:25:16.405Z,28.09
2022-09-01T16:27:30.850Z,28.030001
2022-09-01T16:29:45.484Z,27.959999
2022-09-01T16:32:00.375Z,27.889999
2022-09-01T16:34:14.761Z,27.82
2022-09-01T16:36:30.133Z,27.74
2022-09-01T16:38:45.478Z,27.68
2022-09-01T16:41:00.868Z,27.639999
2022-09-01T16:43:15.401Z,27.6
2022-09-01T16:45:30.209Z,27.58
2022-09-01T16:47:46.522Z,27.530001
2022-09-01T16:50:01.721Z,27.469999
2022-09-01T16:52:16.260Z,27.42
2022-09-01T17:34:58.736Z,24.440001
2022-09-01T17:37:14.124Z,24.48
2022-09-01T17:39:28.479Z,24.549999
2022-09-01T17:41:45.275Z,24.66
2022-09-01T17:43:59.795Z,24.790001
2022-09-01T17:46:14.741Z,24.91
2022-09-01T17:48:30.054Z,25.030001
2022-09-01T17:52:59.370Z,25.190001
2022-09-01T17:55:17.673Z,25.26
2022-09-01T17:57:32.002Z,25.290001
2022-09-01T17:59:46.467Z,25.299999
2022-09-01T18:02:01.750Z,25.290001
2022-09-01T18:04:16.055Z,25.280001
2022-09-01T18:06:30.611Z,25.26
2022-09-01T18:08:45.136Z,25.24
2022-09-01T18:11:00.631Z,25.209999
2022-09-01T18:13:25.815Z,25.17
2022-09-01T18:15:33.534Z,25.129999
2022-09-01T18:17:48.754Z,25.09
2022-09-01T18:20:03.689Z,25.049999
2022-09-01T18:22:18.090Z,25
2022-09-01T18:24:33.663Z,24.950001
2022-09-01T18:26:48.909Z,24.889999
2022-09-01T18:29:03.307Z,24.85
2022-09-01T18:31:18.376Z,24.799999
2022-09-01T18:33:34.520Z,24.75
2022-09-01T18:35:48.962Z,24.719999
2022-09-01T18:38:03.462Z,24.690001
2022-09-01T18:40:18.930Z,24.65
2022-09-01T18:42:33.390Z,24.59
2022-09-01T18:44:47.738Z,24.530001
2022-09-01T18:47:02.176Z,24.48
2022-09-01T18:49:17.219Z,24.440001
2022-09-01T18:51:41.818Z,24.41
2022-09-01T18:54:00.734Z,24.370001
2022-09-01T18:56:15.170Z,24.35
2022-09-01T18:58:29.552Z,24.32
2022-09-01T19:00:44.021Z,24.299999
2022-09-01T19:03:01.822Z,24.27
2022-09-01T19:05:16.615Z,24.23
2022-09-01T19:07:31.473Z,24.200001
2022-09-01T19:09:47.542Z,24.18
2022-09-01T19:12:03.138Z,24.17
2022-09-01T19:14:18.956Z,24.15
2022-09-01T19:16:35.668Z,24.139999
2022-09-01T19:18:50.184Z,24.129999
2022-09-01T19:21:04.865Z,24.129999
2022-09-01T19:23:20.224Z,24.120001
2022-09-01T19:25:35.186Z,24.110001
2022-09-01T19:27:52.547Z,24.110001
2022-09-01T19:30:09.169Z,24.129999
2022-09-01T19:32:24.419Z,24.139999
2022-09-01T19:34:39.042Z,24.139999
2022-09-01T19:36:55.008Z,24.129999
2022-09-01T19:39:13.638Z,24.129999
2022-09-01T19:41:28.303Z,24.120001
2022-09-01T19:43:46.771Z,24.129999
2022-09-01T19:46:01.899Z,24.139999
2022-09-01T19:48:15.971Z,24.16
